MUHG/HOG METAR and TAF weather

Enter ICAO airport designator
Station Type Date Time Source
MUHG METAR 2020/11/27 12:50 UTC NOAA

MUHG 271250Z 05009KT 9000 FEW021 BKN060 24/22 Q1017


Station Type Date Time Source
MUHG Decoded METAR 2020/11/27 12:50 UTC NOAA

Holguin Civ / Mil , Cuba (MUHG) 20-47N 076-19W
Nov 27, 2020 - 07:50 AM EST / 2020.11.27 1250 UTC
Wind: from the NE (050 degrees) at 10 MPH (9 KT):0
Visibility: 5 mile(s):0
Sky conditions: mostly cloudy
Temperature: 75 F (24 C)
Dew Point: 71 F (22 C)
Relative Humidity: 88%
Pressure (altimeter): 30.03 in. Hg (1017 hPa)
ob: MUHG 271250Z 05009KT 9000 FEW021 BKN060 24/22 Q1017
cycle: 13

Station Type Date Time Source
MUHG TAF 2020/11/27 12:03 UTC NOAA

TAF MUHG 271100Z 2712/2812 VRB03KT 9000 SCT020
BECMG 2714/2716 06008KT
BECMG 2801/2803 VRB03KT

Example: see airport list